createdAt,value
2022-10-29T00:01:29.691Z,15.00
2022-10-29T00:03:58.244Z,18.40
2022-10-29T00:06:26.777Z,16.50
2022-10-29T00:08:55.294Z,22.60
2022-10-29T00:11:24.241Z,14.30
2022-10-29T00:14:00.753Z,17.20
2022-10-29T00:16:35.368Z,17.50
2022-10-29T00:19:07.489Z,17.00
2022-10-29T00:21:36.095Z,14.10
2022-10-29T00:24:04.912Z,14.80
2022-10-29T00:26:33.959Z,14.80
2022-10-29T00:29:02.416Z,15.30
2022-10-29T00:31:31.876Z,16.70
2022-10-29T00:34:01.269Z,14.60
2022-10-29T00:36:30.786Z,17.10
2022-10-29T00:38:59.222Z,19.20
2022-10-29T00:41:30.310Z,15.40
2022-10-29T00:44:23.199Z,13.70
2022-10-29T00:46:56.437Z,15.60
2022-10-29T00:49:26.988Z,17.60
2022-10-29T00:51:56.248Z,17.30
2022-10-29T00:54:24.966Z,15.20
2022-10-29T00:56:58.815Z,13.70
2022-10-29T00:59:27.693Z,13.70
2022-10-29T01:01:56.481Z,13.30
2022-10-29T01:04:25.758Z,14.90
2022-10-29T01:06:56.115Z,12.00
2022-10-29T01:09:24.648Z,15.40
2022-10-29T01:12:14.509Z,12.80
2022-10-29T01:15:17.892Z,14.50
2022-10-29T01:17:55.789Z,12.00
2022-10-29T01:20:47.659Z,16.00
2022-10-29T01:23:16.055Z,16.50
2022-10-29T01:26:29.158Z,15.00
2022-10-29T01:29:19.287Z,17.60
2022-10-29T01:32:10.755Z,17.90
2022-10-29T01:35:05.087Z,16.90
2022-10-29T01:37:53.658Z,16.00
2022-10-29T01:40:25.997Z,14.40
2022-10-29T01:43:06.865Z,17.50
2022-10-29T01:45:54.937Z,13.40
2022-10-29T01:48:33.158Z,12.90
2022-10-29T01:51:08.490Z,15.50
2022-10-29T01:53:39.557Z,15.10
2022-10-29T01:56:08.214Z,14.90
2022-10-29T01:58:38.211Z,14.60
2022-10-29T02:01:26.407Z,13.40
2022-10-29T02:04:03.671Z,13.20
2022-10-29T02:06:55.330Z,14.80
2022-10-29T02:09:47.970Z,15.90
2022-10-29T02:12:20.923Z,14.00
2022-10-29T02:14:57.938Z,13.90
2022-10-29T02:17:27.045Z,13.40
2022-10-29T02:19:55.706Z,14.50
2022-10-29T02:22:24.223Z,12.20
2022-10-29T02:24:52.743Z,14.20
2022-10-29T02:27:21.203Z,18.70
2022-10-29T02:29:49.742Z,13.70
2022-10-29T02:32:18.245Z,14.10
2022-10-29T02:34:46.850Z,12.90
2022-10-29T02:37:15.445Z,13.80
2022-10-29T02:39:43.969Z,13.20
2022-10-29T02:42:12.528Z,12.40
2022-10-29T02:44:41.158Z,15.40
2022-10-29T02:47:09.685Z,14.40
2022-10-29T02:49:38.119Z,15.50
2022-10-29T02:52:06.588Z,14.80
2022-10-29T02:54:35.121Z,14.60
2022-10-29T02:57:03.833Z,15.80
2022-10-29T02:59:32.477Z,13.20
2022-10-29T03:02:01.328Z,16.70
2022-10-29T03:04:30.252Z,12.80
2022-10-29T03:06:58.816Z,12.80
2022-10-29T03:09:27.332Z,16.10
2022-10-29T03:11:55.799Z,15.30
2022-10-29T03:14:24.506Z,15.90
2022-10-29T03:16:53.114Z,14.50
2022-10-29T03:19:21.636Z,12.60
2022-10-29T03:21:50.217Z,13.20
2022-10-29T03:24:18.758Z,15.30
2022-10-29T03:26:47.231Z,16.80
2022-10-29T03:29:15.643Z,15.90
2022-10-29T03:31:44.137Z,15.30
2022-10-29T03:34:12.606Z,13.50
2022-10-29T03:36:41.139Z,14.70
2022-10-29T03:39:09.626Z,17.90
2022-10-29T03:41:38.114Z,11.30
2022-10-29T03:44:06.743Z,13.90
2022-10-29T03:46:35.262Z,11.50
2022-10-29T03:49:03.896Z,11.10
2022-10-29T03:51:32.350Z,15.40
2022-10-29T03:54:01.047Z,13.10
2022-10-29T03:56:29.568Z,9.50
2022-10-29T03:58:58.120Z,12.20
2022-10-29T04:01:26.731Z,19.20
2022-10-29T04:03:55.259Z,12.30
2022-10-29T04:06:23.695Z,15.50
2022-10-29T04:08:52.192Z,14.60
2022-10-29T04:11:20.719Z,13.90
2022-10-29T04:13:53.074Z,11.10
2022-10-29T04:16:22.046Z,12.00
2022-10-29T04:18:50.797Z,11.00
2022-10-29T04:29:45.194Z,17.40
2022-10-29T04:32:13.661Z,14.60
2022-10-29T04:34:42.146Z,13.60
2022-10-29T04:37:10.494Z,14.50
2022-10-29T04:39:39.019Z,10.70
2022-10-29T04:42:07.699Z,23.60
2022-10-29T04:44:36.261Z,18.20
2022-10-29T04:47:04.734Z,16.30
2022-10-29T04:49:33.307Z,12.00
2022-10-29T04:52:01.899Z,14.00
2022-10-29T04:54:30.339Z,14.90
2022-10-29T04:56:58.822Z,13.50
2022-10-29T04:59:27.352Z,14.50
2022-10-29T05:01:55.785Z,15.20
2022-10-29T05:04:24.254Z,16.00
2022-10-29T05:06:52.724Z,14.70
2022-10-29T05:09:21.232Z,12.30
2022-10-29T05:11:49.717Z,17.60
2022-10-29T05:14:46.353Z,11.70
2022-10-29T05:17:14.959Z,13.10
2022-10-29T05:19:43.471Z,13.10
2022-10-29T05:22:12.087Z,20.30
2022-10-29T05:24:40.597Z,11.60
2022-10-29T05:27:09.093Z,14.40
2022-10-29T05:29:37.723Z,15.80
2022-10-29T05:32:06.244Z,13.50
2022-10-29T05:34:34.764Z,15.10
2022-10-29T05:37:03.258Z,27.50
2022-10-29T05:39:31.733Z,14.40
2022-10-29T05:42:00.203Z,15.10
2022-10-29T05:44:28.651Z,14.10
2022-10-29T05:46:57.185Z,16.90
2022-10-29T05:49:25.567Z,15.80
2022-10-29T05:51:54.085Z,13.70
2022-10-29T05:54:22.607Z,14.20
2022-10-29T05:56:51.166Z,16.00
2022-10-29T05:59:19.620Z,19.30
2022-10-29T06:01:48.142Z,15.70
2022-10-29T06:04:17.018Z,13.60
2022-10-29T06:06:45.535Z,12.60
2022-10-29T06:09:14.334Z,14.30
2022-10-29T06:11:42.727Z,15.40
2022-10-29T06:14:45.874Z,12.10
2022-10-29T06:17:14.265Z,15.00
2022-10-29T06:19:42.788Z,14.40
2022-10-29T06:22:11.319Z,14.60
2022-10-29T06:24:39.778Z,13.90
2022-10-29T06:27:08.312Z,14.10
2022-10-29T06:29:36.781Z,13.30
2022-10-29T06:32:05.306Z,12.20
2022-10-29T06:34:33.825Z,15.00
2022-10-29T06:37:02.397Z,20.50
2022-10-29T06:39:30.885Z,11.70
2022-10-29T06:41:59.358Z,15.60
2022-10-29T06:44:27.864Z,15.40
2022-10-29T06:46:56.594Z,14.70
2022-10-29T06:49:25.171Z,15.00
2022-10-29T06:51:53.613Z,14.00
2022-10-29T06:54:22.205Z,12.80
2022-10-29T06:56:50.717Z,12.20
2022-10-29T06:59:19.185Z,16.30
2022-10-29T07:01:47.751Z,13.80
2022-10-29T07:04:18.207Z,13.40
2022-10-29T07:06:47.290Z,17.10
2022-10-29T07:09:15.754Z,15.00
2022-10-29T07:11:44.370Z,15.80
2022-10-29T07:14:13.999Z,14.60
2022-10-29T07:16:42.744Z,16.80
2022-10-29T07:19:11.232Z,16.50
2022-10-29T07:21:39.739Z,17.10
2022-10-29T07:24:08.606Z,15.10
2022-10-29T07:26:37.674Z,16.40
2022-10-29T07:29:08.700Z,19.40
2022-10-29T07:31:37.093Z,12.80
2022-10-29T07:34:05.598Z,15.80
2022-10-29T07:36:33.954Z,16.40
2022-10-29T07:39:04.184Z,17.00
2022-10-29T07:41:32.584Z,15.80
2022-10-29T07:44:01.052Z,14.80
2022-10-29T07:46:29.472Z,14.60
2022-10-29T07:52:01.938Z,11.70
2022-10-29T07:54:30.485Z,14.60
2022-10-29T07:56:59.122Z,12.10
2022-10-29T07:59:27.569Z,13.20
2022-10-29T08:01:56.146Z,14.30
2022-10-29T08:04:25.058Z,18.10
2022-10-29T08:06:53.472Z,18.20
2022-10-29T08:09:22.021Z,12.60
2022-10-29T08:11:50.488Z,14.80
2022-10-29T08:14:22.624Z,13.10
2022-10-29T08:16:54.991Z,11.80
2022-10-29T08:19:23.537Z,12.90
2022-10-29T08:21:52.052Z,15.40
2022-10-29T08:24:20.639Z,20.80
2022-10-29T08:26:51.660Z,13.80
2022-10-29T08:29:20.212Z,16.90
2022-10-29T08:31:48.532Z,18.20
2022-10-29T08:34:17.061Z,13.80
2022-10-29T08:36:45.448Z,12.90
2022-10-29T08:39:13.743Z,11.20
2022-10-29T08:41:50.958Z,12.10
2022-10-29T08:44:45.422Z,13.60
2022-10-29T08:47:13.813Z,12.60
2022-10-29T08:49:52.359Z,13.60
2022-10-29T08:52:25.636Z,19.40
2022-10-29T08:55:19.341Z,16.50
2022-10-29T09:00:21.867Z,13.50
2022-10-29T09:02:56.057Z,12.80
2022-10-29T09:05:32.660Z,17.70
2022-10-29T09:08:06.000Z,17.80
2022-10-29T09:10:34.315Z,15.60
2022-10-29T09:13:22.182Z,18.50
2022-10-29T09:15:57.727Z,17.40
2022-10-29T09:18:26.610Z,15.10
2022-10-29T09:21:13.758Z,14.40
2022-10-29T09:23:44.896Z,15.90
2022-10-29T09:26:17.705Z,15.10
2022-10-29T09:28:48.842Z,15.00
2022-10-29T09:31:23.950Z,13.80
2022-10-29T09:33:57.775Z,12.10
2022-10-29T09:36:30.215Z,12.20
2022-10-29T09:39:02.978Z,14.90
2022-10-29T09:41:32.938Z,11.70
2022-10-29T09:44:04.142Z,12.90
2022-10-29T09:46:53.270Z,10.60
2022-10-29T09:49:47.541Z,12.30
2022-10-29T09:54:44.451Z,13.10
2022-10-29T09:57:17.984Z,12.00
2022-10-29T10:00:12.943Z,11.60
2022-10-29T10:02:48.336Z,11.50
2022-10-29T10:05:20.939Z,13.10
2022-10-29T10:08:06.708Z,8.70
2022-10-29T10:10:36.564Z,12.10
2022-10-29T10:13:05.647Z,12.30
2022-10-29T10:15:37.540Z,10.80
2022-10-29T10:18:07.313Z,15.30
2022-10-29T10:20:37.473Z,9.90
2022-10-29T10:23:26.645Z,10.40
2022-10-29T10:26:00.336Z,11.30
2022-10-29T10:28:35.669Z,14.10
2022-10-29T10:31:03.980Z,11.50
2022-10-29T10:33:34.579Z,10.30
2022-10-29T10:36:07.560Z,13.70
2022-10-29T10:38:55.619Z,10.20
2022-10-29T10:41:34.868Z,10.70
2022-10-29T10:44:04.827Z,10.40
2022-10-29T10:46:39.466Z,16.30
2022-10-29T10:49:13.989Z,10.60
2022-10-29T10:52:00.606Z,10.40
2022-10-29T10:54:31.804Z,7.70
2022-10-29T10:57:05.500Z,9.80
2022-10-29T11:02:03.408Z,11.00
2022-10-29T11:04:36.200Z,10.90
2022-10-29T11:07:06.791Z,8.60
2022-10-29T11:09:38.325Z,10.90
2022-10-29T11:12:15.614Z,14.00
2022-10-29T11:15:07.284Z,10.90
2022-10-29T11:17:41.566Z,12.40
2022-10-29T11:20:18.921Z,7.30
2022-10-29T11:23:21.823Z,9.70
2022-10-29T11:26:04.804Z,13.80
2022-10-29T11:28:41.144Z,10.10
2022-10-29T11:31:15.528Z,11.70
2022-10-29T11:34:03.367Z,9.00
2022-10-29T11:36:34.900Z,10.10
2022-10-29T11:39:10.632Z,7.90
2022-10-29T11:41:57.766Z,9.40
2022-10-29T11:44:27.569Z,6.20
2022-10-29T11:46:58.468Z,7.60
2022-10-29T11:49:45.760Z,5.60
2022-10-29T11:52:17.246Z,7.30
2022-10-29T11:55:07.163Z,7.00
2022-10-29T11:57:38.414Z,7.60
2022-10-29T12:00:18.773Z,12.60
2022-10-29T12:02:59.806Z,9.10
2022-10-29T12:05:55.926Z,6.30
2022-10-29T12:08:30.373Z,6.10
2022-10-29T12:11:10.645Z,8.20
2022-10-29T12:13:49.843Z,6.40
2022-10-29T12:16:21.257Z,7.60
2022-10-29T12:18:58.695Z,7.00
2022-10-29T12:21:27.304Z,8.90
2022-10-29T12:24:07.297Z,8.80
2022-10-29T12:26:48.491Z,4.50
2022-10-29T12:29:20.126Z,6.70
2022-10-29T12:32:00.104Z,4.00
2022-10-29T12:34:37.163Z,9.20
2022-10-29T12:37:10.753Z,9.20
2022-10-29T12:39:48.057Z,5.40
2022-10-29T12:42:24.289Z,6.80
2022-10-29T12:44:52.570Z,5.90
2022-10-29T12:47:26.009Z,6.20
2022-10-29T12:49:57.013Z,5.50
2022-10-29T12:52:33.728Z,6.80
2022-10-29T12:55:02.434Z,9.10
2022-10-29T12:57:32.166Z,5.50
2022-10-29T13:00:24.945Z,7.90
2022-10-29T13:04:06.659Z,10.90
2022-10-29T13:06:45.016Z,8.20
2022-10-29T13:09:24.997Z,9.10
2022-10-29T13:12:14.369Z,6.90
2022-10-29T13:14:56.245Z,6.20
2022-10-29T13:17:40.531Z,7.20
2022-10-29T13:20:33.511Z,7.00
2022-10-29T13:23:05.176Z,7.50
2022-10-29T13:25:42.683Z,6.20
2022-10-29T13:28:10.927Z,8.40
2022-10-29T13:31:16.117Z,9.80
2022-10-29T13:34:04.270Z,10.10
2022-10-29T13:36:51.553Z,8.70
2022-10-29T13:39:30.652Z,7.40
2022-10-29T13:42:13.571Z,8.60
2022-10-29T13:45:01.823Z,9.70
2022-10-29T13:50:48.442Z,9.90
2022-10-29T13:53:42.436Z,7.70
2022-10-29T13:58:45.853Z,9.10
2022-10-29T14:01:19.344Z,9.30
2022-10-29T14:04:11.858Z,15.30
2022-10-29T14:06:54.051Z,7.70
2022-10-29T14:09:57.813Z,10.60
2022-10-29T14:12:32.414Z,9.50
2022-10-29T14:15:11.512Z,7.40
2022-10-29T14:17:41.079Z,7.80
2022-10-29T14:26:46.466Z,9.30
2022-10-29T14:29:36.586Z,7.50
2022-10-29T14:32:28.737Z,8.00
2022-10-29T14:34:58.324Z,9.20
2022-10-29T14:37:42.983Z,6.70
2022-10-29T14:40:22.006Z,6.30
2022-10-29T14:42:56.015Z,7.50
2022-10-29T14:45:30.724Z,7.50
2022-10-29T14:48:03.603Z,7.80
2022-10-29T14:50:35.652Z,10.10
2022-10-29T14:53:18.140Z,7.50
2022-10-29T14:55:49.664Z,12.20
2022-10-29T14:58:31.385Z,10.30
2022-10-29T15:01:08.684Z,9.00
2022-10-29T15:03:37.596Z,11.20
2022-10-29T15:06:17.735Z,18.00
2022-10-29T15:08:56.377Z,12.40
2022-10-29T15:11:42.916Z,8.20
2022-10-29T15:14:47.290Z,9.40
2022-10-29T15:17:20.230Z,8.50
2022-10-29T15:19:52.772Z,10.50
2022-10-29T15:22:32.086Z,13.90
2022-10-29T15:25:05.340Z,10.10
2022-10-29T15:27:37.869Z,12.40
2022-10-29T15:30:07.183Z,9.00
2022-10-29T15:32:36.016Z,14.30
2022-10-29T15:35:18.441Z,12.70
2022-10-29T15:37:48.104Z,13.90
2022-10-29T15:40:22.671Z,9.70
2022-10-29T15:42:51.988Z,9.50
2022-10-29T15:45:29.228Z,8.30
2022-10-29T15:48:18.068Z,10.60
2022-10-29T15:50:46.871Z,9.50
2022-10-29T15:53:18.608Z,9.80
2022-10-29T15:55:52.155Z,9.60
2022-10-29T15:58:23.667Z,11.50
2022-10-29T16:00:52.082Z,9.90
2022-10-29T16:03:26.804Z,12.80
2022-10-29T16:05:57.670Z,9.50
2022-10-29T16:08:29.093Z,10.70
2022-10-29T16:11:00.516Z,14.90
2022-10-29T16:13:33.148Z,15.80
2022-10-29T16:16:02.084Z,31.20
2022-10-29T16:18:32.120Z,27.90
2022-10-29T16:21:05.290Z,21.80
2022-10-29T16:23:38.859Z,26.10
2022-10-29T16:26:16.484Z,30.10
2022-10-29T16:28:45.438Z,29.70
2022-10-29T16:31:28.919Z,36.60
2022-10-29T16:33:59.848Z,62.00
2022-10-29T16:36:28.621Z,26.70
2022-10-29T16:38:57.398Z,21.70
2022-10-29T16:41:25.916Z,21.70
2022-10-29T16:43:54.891Z,23.90
2022-10-29T16:46:24.088Z,19.60
2022-10-29T16:48:53.087Z,18.90
2022-10-29T16:51:21.642Z,20.50
2022-10-29T16:53:50.197Z,17.90
2022-10-29T16:56:20.226Z,20.20
2022-10-29T16:58:54.027Z,17.90
2022-10-29T17:01:26.582Z,13.00
2022-10-29T17:03:56.238Z,19.30
2022-10-29T17:06:24.684Z,15.90
2022-10-29T17:08:54.115Z,15.90
2022-10-29T17:11:23.109Z,16.90
2022-10-29T17:13:51.550Z,16.00
2022-10-29T17:16:20.466Z,19.90
2022-10-29T17:18:52.218Z,19.10
2022-10-29T17:21:21.013Z,14.70
2022-10-29T17:23:51.779Z,16.90
2022-10-29T17:26:20.646Z,20.80
2022-10-29T17:28:49.389Z,17.10
2022-10-29T17:31:18.535Z,17.80
2022-10-29T17:33:46.918Z,16.80
2022-10-29T17:36:19.090Z,17.70
2022-10-29T17:38:48.003Z,17.60
2022-10-29T17:41:16.842Z,23.40
2022-10-29T17:43:50.212Z,19.90
2022-10-29T17:46:19.599Z,21.70
2022-10-29T17:48:49.768Z,19.80
2022-10-29T17:51:19.568Z,19.10
2022-10-29T17:53:50.888Z,17.30
2022-10-29T17:56:20.388Z,18.40
2022-10-29T17:58:50.489Z,15.30
2022-10-29T18:01:21.207Z,20.70
2022-10-29T18:03:52.034Z,20.80
2022-10-29T18:06:21.021Z,20.70
2022-10-29T18:08:50.646Z,19.00
2022-10-29T18:11:24.360Z,13.80
2022-10-29T18:16:26.605Z,17.30
2022-10-29T18:19:03.147Z,32.60
2022-10-29T18:21:33.575Z,33.50
2022-10-29T18:24:02.116Z,33.30
2022-10-29T18:26:36.852Z,45.80
2022-10-29T18:29:11.701Z,42.90
2022-10-29T18:31:46.863Z,46.50
2022-10-29T18:34:17.891Z,45.80
2022-10-29T18:36:47.894Z,39.20
2022-10-29T18:39:16.538Z,58.30
2022-10-29T18:41:46.149Z,51.90
2022-10-29T18:44:15.114Z,66.00
2022-10-29T18:46:46.250Z,66.30
2022-10-29T18:49:15.423Z,63.60
2022-10-29T18:51:47.192Z,70.90
2022-10-29T18:54:16.727Z,100.80
2022-10-29T18:56:47.789Z,115.60
2022-10-29T18:59:17.057Z,99.40
2022-10-29T19:01:46.844Z,92.60
2022-10-29T19:04:16.948Z,85.10
2022-10-29T19:06:45.952Z,76.20
2022-10-29T19:09:14.864Z,78.40
2022-10-29T19:11:44.690Z,75.90
2022-10-29T19:14:14.940Z,57.50
2022-10-29T19:16:44.360Z,54.60
2022-10-29T19:19:16.126Z,57.20
2022-10-29T19:21:47.460Z,46.20
2022-10-29T19:24:16.959Z,52.40
2022-10-29T19:26:46.017Z,53.10
2022-10-29T19:29:15.788Z,41.30
2022-10-29T19:31:47.582Z,46.30
2022-10-29T19:34:17.790Z,46.60
2022-10-29T19:36:50.010Z,36.40
2022-10-29T19:39:19.677Z,34.60
2022-10-29T19:41:48.620Z,38.50
2022-10-29T19:44:17.762Z,38.00
2022-10-29T19:46:46.500Z,33.10
2022-10-29T19:49:15.828Z,41.30
2022-10-29T19:51:47.141Z,41.00
2022-10-29T19:54:17.150Z,32.30
2022-10-29T19:56:45.468Z,45.00
2022-10-29T19:59:14.489Z,32.20
2022-10-29T20:01:44.233Z,27.70
2022-10-29T20:04:12.852Z,31.20
2022-10-29T20:06:41.509Z,31.50
2022-10-29T20:09:10.398Z,32.90
2022-10-29T20:11:41.861Z,29.10
2022-10-29T20:14:10.480Z,30.30
2022-10-29T20:16:39.748Z,26.30
2022-10-29T20:19:09.161Z,28.00
2022-10-29T20:21:38.030Z,28.80
2022-10-29T20:24:06.585Z,26.10
2022-10-29T20:26:35.753Z,29.20
2022-10-29T20:29:05.130Z,30.00
2022-10-29T20:31:40.131Z,30.90
2022-10-29T20:34:10.891Z,31.80
2022-10-29T20:36:39.988Z,29.90
2022-10-29T20:39:09.059Z,28.40
2022-10-29T20:41:38.294Z,24.70
2022-10-29T20:44:07.499Z,29.80
2022-10-29T20:46:40.874Z,35.40
2022-10-29T20:49:11.739Z,31.30
2022-10-29T20:51:40.142Z,35.60
2022-10-29T20:54:08.610Z,29.20
2022-10-29T20:56:37.078Z,30.10
2022-10-29T20:59:05.406Z,41.60
2022-10-29T21:01:34.025Z,34.10
2022-10-29T21:04:02.612Z,29.90
2022-10-29T21:06:30.985Z,34.40
2022-10-29T21:08:59.348Z,32.70
2022-10-29T21:11:27.639Z,40.50
2022-10-29T21:13:55.854Z,42.40
2022-10-29T21:16:29.415Z,37.90
2022-10-29T21:19:02.460Z,34.90
2022-10-29T21:21:31.136Z,38.20
2022-10-29T21:24:00.044Z,32.80
2022-10-29T21:26:29.281Z,33.70
2022-10-29T21:28:57.825Z,33.60
2022-10-29T21:31:26.330Z,33.20
2022-10-29T21:33:56.210Z,30.00
2022-10-29T21:36:24.746Z,33.60
2022-10-29T21:38:53.088Z,32.30
2022-10-29T21:41:21.305Z,28.00
2022-10-29T21:43:49.709Z,30.40
2022-10-29T21:46:18.020Z,33.10
2022-10-29T21:48:46.257Z,28.90
2022-10-29T21:51:17.673Z,30.60
2022-10-29T21:53:46.117Z,31.10
2022-10-29T21:56:16.004Z,34.50
2022-10-29T21:58:44.545Z,30.20
2022-10-29T22:01:15.483Z,23.90
2022-10-29T22:03:45.659Z,33.10
2022-10-29T22:06:22.407Z,26.20
2022-10-29T22:08:56.272Z,23.80
2022-10-29T22:11:26.255Z,23.80
2022-10-29T22:13:55.543Z,25.90
2022-10-29T22:16:23.870Z,27.70
2022-10-29T22:18:52.875Z,30.90
2022-10-29T22:21:23.597Z,29.60
2022-10-29T22:23:57.129Z,21.90
2022-10-29T22:26:28.344Z,25.10
2022-10-29T22:28:57.670Z,24.20
2022-10-29T22:31:26.040Z,20.60
2022-10-29T22:33:54.373Z,25.70
2022-10-29T22:36:25.751Z,24.00
2022-10-29T22:38:59.076Z,23.90
2022-10-29T22:41:28.693Z,24.50
2022-10-29T22:44:00.128Z,22.10
2022-10-29T22:46:30.166Z,22.10
2022-10-29T22:48:58.631Z,24.10
2022-10-29T22:51:31.975Z,21.60
2022-10-29T22:54:01.089Z,32.10
2022-10-29T22:56:35.959Z,24.80
2022-10-29T22:59:08.054Z,27.30
2022-10-29T23:01:42.035Z,23.40
2022-10-29T23:04:13.850Z,37.00
2022-10-29T23:06:42.385Z,32.50
2022-10-29T23:09:11.004Z,26.10
2022-10-29T23:11:39.846Z,32.80
2022-10-29T23:14:08.116Z,29.30
2022-10-29T23:16:37.311Z,23.90
2022-10-29T23:19:06.942Z,25.90
2022-10-29T23:21:36.162Z,28.70
2022-10-29T23:24:04.952Z,31.50
2022-10-29T23:26:33.145Z,33.40
2022-10-29T23:29:01.437Z,38.30
2022-10-29T23:31:29.681Z,30.30
2022-10-29T23:33:59.192Z,44.20
2022-10-29T23:36:28.211Z,34.30
2022-10-29T23:38:58.414Z,30.00
2022-10-29T23:41:31.347Z,30.00
2022-10-29T23:43:59.908Z,29.80
2022-10-29T23:46:28.741Z,24.90
2022-10-29T23:48:57.003Z,27.70
2022-10-29T23:51:25.451Z,28.90
2022-10-29T23:53:56.576Z,30.40
2022-10-29T23:56:26.539Z,31.10
2022-10-29T23:58:54.858Z,28.20
